7WI7 weather

CLOSED Charlies Airport
Medford, Wisconsin, United States

Public forecast

Using degrees Fahrenheit for public forecast. Weather courtesy of forecast.io.

Closest aviation weather report (METAR) to Charlies Airport

Closest report is Taylor County Airport, 7.4 nm (13.7 km) WSW. Retrieved 2020/04/01 06:35 UTC (20 minutes ago):

KMDZ 010635Z AUTO 09005KT 10SM SCT032 01/M02 A3005 RMK AO2 T00061025

Closest aviation forecast (TAF) to Charlies Airport

Closest forecast is Wausau Downtown Airport, 26.2 nm (48.5 km) ESE. Retrieved 2020/04/01 06:22 UTC (33 minutes ago):

TAF KAUW 010520Z 0106/0206 VRB03KT P6SM OVC028 TEMPO 0106/0108 SCT028 BKN040 FM011000 VRB03KT P6SM OVC018 FM011900 13008KT P6SM BKN030 FM012100 13009KT P6SM BKN030 FM012200 12005KT P6SM BKN035 FM020300 12004KT P6SM BKN060